Time;durP1;ratioP1;P1;durP2;ratioP2;P2;SDS_P1;SDS_P2;PMS_P1;PMS_P2;Temp;Humidity;BMP_temperature;BMP_pressure;BME280_temperature;BME280_humidity;BME280_pressure;Samples;Min_cycle;Max_cycle;Signal;HPM_P1;HPM_P2
2021/06/17 00:00:12;;;;;;;5.10;2.30;;;;;;;13.44;70.13;100947.22;22633;1215;3079841;-67
2021/06/17 00:02:43;;;;;;;5.20;3.20;;;;;;;13.43;70.21;100949.08;22638;1215;3080003;-70
2021/06/17 00:04:50;;;;;;;6.30;2.90;;;;;;;13.42;70.20;100946.58;22621;1213;3079836;-71
2021/06/17 00:06:58;;;;;;;4.70;2.80;;;;;;;13.42;70.28;100947.42;22622;1203;3079818;-70
2021/06/17 00:09:07;;;;;;;5.20;2.90;;;;;;;13.42;70.27;100952.01;22620;1202;3079680;-68
2021/06/17 00:11:17;;;;;;;5.70;2.80;;;;;;;13.39;70.30;100947.81;22630;1211;3080251;-67
2021/06/17 00:13:28;;;;;;;7.20;2.70;;;;;;;13.36;70.41;100947.34;22627;1213;3079972;-68
2021/06/17 00:15:37;;;;;;;4.00;2.90;;;;;;;13.35;70.21;100948.41;22568;1213;3079731;-68
2021/06/17 00:17:46;;;;;;;4.10;2.60;;;;;;;13.32;70.30;100955.03;22617;1212;3080131;-68
2021/06/17 00:19:57;;;;;;;6.80;2.50;;;;;;;13.30;70.25;100948.96;21828;1215;3969427;-68
2021/06/17 00:22:05;;;;;;;4.50;2.40;;;;;;;13.30;70.42;100946.25;22633;1215;3078828;-68
2021/06/17 00:24:13;;;;;;;5.20;2.90;;;;;;;13.28;70.35;100956.47;22621;1203;3079963;-67
2021/06/17 00:26:20;;;;;;;4.00;2.70;;;;;;;13.27;70.30;100953.92;22628;1211;3080012;-67
2021/06/17 00:28:28;;;;;;;4.50;2.70;;;;;;;13.21;70.36;100952.83;22621;1210;3079665;-67
2021/06/17 00:30:36;;;;;;;5.60;2.70;;;;;;;13.18;70.50;100952.39;22624;1207;3079734;-68
2021/06/17 00:32:43;;;;;;;6.50;2.90;;;;;;;13.15;70.48;100953.63;22618;1210;3079110;-67
2021/06/17 00:34:51;;;;;;;5.40;2.90;;;;;;;13.13;70.61;100954.84;22624;1214;3080487;-67
2021/06/17 00:37:01;;;;;;;5.00;2.90;;;;;;;13.09;70.44;100948.95;22639;1210;3079924;-67
2021/06/17 00:39:11;;;;;;;6.20;3.60;;;;;;;13.07;70.65;100952.86;22618;1203;3079559;-68
2021/06/17 00:41:21;;;;;;;4.70;2.80;;;;;;;13.02;70.52;100965.11;22621;1213;3080414;-67
2021/06/17 00:43:29;;;;;;;5.50;2.80;;;;;;;13.00;70.66;100967.19;21811;1209;3201790;-67
2021/06/17 00:45:41;;;;;;;4.80;2.70;;;;;;;13.00;70.74;100961.77;22631;1214;3080637;-67
2021/06/17 00:47:49;;;;;;;5.60;3.00;;;;;;;12.99;70.85;100961.97;22619;1211;3079635;-67
2021/06/17 00:49:57;;;;;;;7.40;2.80;;;;;;;12.98;70.74;100965.70;21847;1215;3965584;-68
2021/06/17 00:52:07;;;;;;;6.80;3.20;;;;;;;12.92;70.85;100970.02;22631;1214;3079723;-69
2021/06/17 00:54:31;;;;;;;5.60;3.50;;;;;;;12.86;70.84;100957.21;22577;1214;3080108;-68
2021/06/17 00:56:39;;;;;;;5.10;2.80;;;;;;;12.85;70.80;100957.41;22634;1213;3079349;-68
2021/06/17 00:58:47;;;;;;;5.50;3.30;;;;;;;12.81;70.87;100959.66;22618;1208;3079769;-68
2021/06/17 01:00:55;;;;;;;5.20;3.40;;;;;;;12.78;70.84;100961.90;22629;1215;3079742;-68
2021/06/17 01:03:07;;;;;;;9.10;3.40;;;;;;;12.76;71.03;100969.39;21839;1215;3975567;-69
2021/06/17 01:05:19;;;;;;;6.20;3.10;;;;;;;12.74;71.05;100963.33;22623;1207;3078314;-68
2021/06/17 01:07:35;;;;;;;5.80;3.10;;;;;;;12.73;70.86;100959.77;22624;1211;3080401;-69
2021/06/17 01:09:55;;;;;;;6.20;3.10;;;;;;;12.70;71.19;100953.88;21842;1207;3976690;-68
2021/06/17 01:12:19;;;;;;;5.50;3.20;;;;;;;12.67;71.34;100960.52;22626;1215;3079894;-67
2021/06/17 01:14:33;;;;;;;8.70;3.10;;;;;;;12.64;71.25;100962.76;22638;1215;3079279;-69
2021/06/17 01:16:52;;;;;;;5.30;3.00;;;;;;;12.61;71.10;100960.45;22626;1210;3080044;-68
2021/06/17 01:19:04;;;;;;;7.00;2.90;;;;;;;12.61;71.16;100961.27;22622;1212;3080250;-67
2021/06/17 01:21:30;;;;;;;5.60;3.00;;;;;;;12.59;71.21;100957.91;22632;1211;3079265;-68
2021/06/17 01:24:04;;;;;;;4.60;3.20;;;;;;;12.55;71.34;100955.78;22634;1203;3079987;-69
2021/06/17 01:26:23;;;;;;;7.30;3.60;;;;;;;12.53;71.38;100958.66;22626;1210;3079922;-67
2021/06/17 01:28:32;;;;;;;7.60;3.50;;;;;;;12.51;71.42;100963.44;22643;1213;3080578;-67
2021/06/17 01:31:00;;;;;;;8.70;2.90;;;;;;;12.50;71.61;100952.80;22621;1215;3079075;-67
2021/06/17 01:33:10;;;;;;;5.60;2.90;;;;;;;12.48;71.66;100966.52;21840;1215;3968645;-67
2021/06/17 01:35:25;;;;;;;7.00;3.40;;;;;;;12.48;71.62;100960.25;22626;1215;3079802;-67
2021/06/17 01:37:35;;;;;;;6.60;3.20;;;;;;;12.44;71.29;100959.81;22625;1213;3079924;-67
2021/06/17 01:39:44;;;;;;;6.50;2.90;;;;;;;12.43;71.37;100958.97;22582;1215;3080964;-67
2021/06/17 01:41:53;;;;;;;8.50;3.20;;;;;;;12.42;71.41;100953.72;22643;1215;3079989;-67
2021/06/17 01:44:08;;;;;;;9.20;3.50;;;;;;;12.40;71.56;100953.07;22629;1210;3080097;-67
2021/06/17 01:46:16;;;;;;;7.90;3.60;;;;;;;12.32;71.56;100951.30;22631;1211;3079082;-68
2021/06/17 01:48:24;;;;;;;8.00;3.50;;;;;;;12.28;71.55;100949.98;22632;1207;3079882;-68
2021/06/17 01:50:33;;;;;;;12.30;5.00;;;;;;;12.26;71.44;100956.62;21850;1215;3964870;-68
2021/06/17 01:52:42;;;;;;;11.90;4.20;;;;;;;12.22;71.71;100950.72;21824;1215;3973577;-68
2021/06/17 01:54:52;;;;;;;8.30;3.90;;;;;;;12.20;71.68;100951.94;22620;1213;3080200;-68
2021/06/17 01:57:02;;;;;;;8.60;3.90;;;;;;;12.19;71.59;100959.25;22631;1211;3078936;-67
2021/06/17 01:59:10;;;;;;;7.20;3.70;;;;;;;12.18;71.67;100960.27;22596;1208;3080389;-69
2021/06/17 02:01:23;;;;;;;8.00;3.90;;;;;;;12.16;71.85;100966.90;22615;1207;3079926;-69
2021/06/17 02:03:32;;;;;;;9.00;4.10;;;;;;;12.15;71.75;100963.34;22622;1215;3079685;-69
2021/06/17 02:05:41;;;;;;;8.30;3.70;;;;;;;12.13;71.85;100965.41;21833;1215;3966952;-69
2021/06/17 02:07:50;;;;;;;8.60;4.20;;;;;;;12.13;71.91;100962.70;22635;1211;3080098;-68
2021/06/17 02:10:00;;;;;;;7.70;3.90;;;;;;;12.10;71.96;100967.63;22624;1214;3079437;-68
2021/06/17 02:12:09;;;;;;;9.50;4.40;;;;;;;12.06;71.95;100961.73;22585;1211;3079597;-68
2021/06/17 02:14:17;;;;;;;9.20;4.40;;;;;;;12.06;72.05;100963.63;22575;1203;3079410;-70
2021/06/17 02:16:27;;;;;;;5.70;3.40;;;;;;;12.06;72.20;100967.16;21840;1211;3973986;-69
2021/06/17 02:18:36;;;;;;;6.90;3.90;;;;;;;12.05;72.30;100970.91;21839;1210;3973574;-68
2021/06/17 02:20:44;;;;;;;7.10;3.70;;;;;;;12.05;72.13;100970.91;21849;1213;3960818;-68
2021/06/17 02:23:07;;;;;;;7.50;4.10;;;;;;;11.99;72.35;100965.38;21823;1215;3974605;-68
2021/06/17 02:25:19;;;;;;;7.20;3.90;;;;;;;12.00;72.39;100967.07;22641;1202;3080669;-67
2021/06/17 02:27:31;;;;;;;6.00;3.90;;;;;;;11.96;72.42;100966.59;22630;1215;3079835;-67
2021/06/17 02:29:43;;;;;;;7.90;4.30;;;;;;;11.99;72.37;100970.80;22640;1215;3079995;-67
2021/06/17 02:31:54;;;;;;;9.80;4.80;;;;;;;12.00;72.43;100970.63;22619;1213;3078963;-67
2021/06/17 02:34:05;;;;;;;8.00;4.40;;;;;;;12.00;72.75;100969.78;22611;1215;3079249;-67
2021/06/17 02:36:17;;;;;;;8.70;4.90;;;;;;;12.03;72.93;100964.81;21834;1215;3202711;-67
2021/06/17 02:38:31;;;;;;;9.10;4.70;;;;;;;12.05;72.80;100968.20;22619;1202;3080553;-68
2021/06/17 02:40:45;;;;;;;7.10;4.60;;;;;;;12.04;72.88;100966.50;22635;1215;3080222;-67
2021/06/17 02:42:56;;;;;;;7.50;4.40;;;;;;;12.07;73.02;100970.70;22625;1215;3079117;-68
2021/06/17 02:45:05;;;;;;;9.10;4.80;;;;;;;12.08;72.78;100973.25;22625;1213;3080002;-68
2021/06/17 02:47:13;;;;;;;7.70;4.40;;;;;;;12.10;72.69;100973.90;21850;1215;3960711;-68
2021/06/17 02:49:21;;;;;;;8.10;4.50;;;;;;;12.14;72.92;100964.36;21844;1207;3963531;-68
2021/06/17 02:51:29;;;;;;;7.50;4.30;;;;;;;12.17;72.80;100968.56;22631;1210;3080243;-68
2021/06/17 02:53:36;;;;;;;10.60;4.50;;;;;;;12.18;72.67;100965.68;22633;1214;3080025;-68
2021/06/17 02:55:44;;;;;;;7.90;4.70;;;;;;;12.18;73.04;100970.25;22640;1215;3079476;-67
2021/06/17 02:58:08;;;;;;;9.50;4.40;;;;;;;12.19;72.79;100972.80;22620;1211;3080067;-67
2021/06/17 03:00:19;;;;;;;6.70;4.10;;;;;;;12.25;72.81;100969.31;21850;1213;3957478;-67
2021/06/17 03:02:37;;;;;;;9.70;4.90;;;;;;;12.30;72.98;100971.48;22604;1213;3079665;-67
2021/06/17 03:04:50;;;;;;;12.30;4.40;;;;;;;12.33;73.07;100966.52;22641;1211;3079728;-67
2021/06/17 03:07:00;;;;;;;10.30;4.90;;;;;;;12.40;73.28;100967.47;22614;1207;3080098;-67
2021/06/17 03:09:13;;;;;;;9.10;4.30;;;;;;;12.45;72.91;100966.89;22605;1215;3079020;-69
2021/06/17 03:11:22;;;;;;;10.30;5.30;;;;;;;12.52;73.01;100972.41;22625;1204;3079947;-68
2021/06/17 03:13:33;;;;;;;9.40;4.20;;;;;;;12.57;72.91;100976.24;22638;1215;3080248;-68
2021/06/17 03:15:46;;;;;;;11.60;4.80;;;;;;;12.62;72.85;100979.22;22642;1204;3079606;-68
2021/06/17 03:17:55;;;;;;;10.80;4.60;;;;;;;12.69;73.17;100977.42;22621;1213;3080129;-68
2021/06/17 03:20:07;;;;;;;9.10;4.30;;;;;;;12.78;73.19;100973.59;22625;1204;3080410;-67
2021/06/17 03:22:17;;;;;;;13.50;4.50;;;;;;;12.89;72.94;100980.39;22628;1203;3081666;-67
2021/06/17 03:24:29;;;;;;;12.80;5.00;;;;;;;13.00;73.21;100978.03;22607;1210;3079934;-68
2021/06/17 03:26:40;;;;;;;12.60;5.20;;;;;;;13.29;73.05;100979.86;22615;1213;3079686;-68
2021/06/17 03:28:49;;;;;;;11.70;4.70;;;;;;;14.10;72.69;100976.61;22633;1215;3079212;-67
2021/06/17 03:30:58;;;;;;;9.40;4.20;;;;;;;14.78;72.15;100979.56;22616;1214;3080346;-68
2021/06/17 03:33:07;;;;;;;13.10;5.00;;;;;;;15.75;71.32;100978.98;22622;1213;3078999;-68
2021/06/17 03:35:16;;;;;;;11.80;4.20;;;;;;;17.18;70.01;100981.61;22623;1205;3079634;-67
2021/06/17 03:37:27;;;;;;;15.30;4.90;;;;;;;18.56;68.19;100986.87;22630;1213;3080579;-67
2021/06/17 03:39:36;;;;;;;14.90;4.60;;;;;;;19.78;66.99;100983.75;22618;1211;3080770;-67
2021/06/17 03:41:44;;;;;;;12.00;4.70;;;;;;;20.89;65.61;100980.07;22610;1215;3081853;-67
2021/06/17 03:43:52;;;;;;;13.10;4.30;;;;;;;21.87;63.23;100979.80;22615;1213;3080394;-68
2021/06/17 03:46:01;;;;;;;13.50;4.20;;;;;;;22.68;61.82;100977.25;22594;1210;3080594;-68
2021/06/17 03:48:14;;;;;;;9.10;4.90;;;;;;;23.41;60.24;100986.97;21804;1215;3994385;-68
2021/06/17 03:50:25;;;;;;;11.40;4.80;;;;;;;24.15;58.33;100976.92;22616;1215;3080105;-67
2021/06/17 03:52:33;;;;;;;7.20;4.60;;;;;;;24.75;56.98;100986.72;22599;1206;3079230;-67
2021/06/17 03:54:42;;;;;;;7.40;3.90;;;;;;;25.23;55.67;100987.23;22577;1215;3080362;-67
2021/06/17 03:56:49;;;;;;;7.50;4.10;;;;;;;25.71;54.45;100982.39;21888;1214;3080261;-67
2021/06/17 03:58:57;;;;;;;9.90;4.40;;;;;;;26.19;52.92;100976.33;21874;1214;3079983;-67
2021/06/17 04:01:10;;;;;;;7.90;4.10;;;;;;;26.55;52.14;100979.03;21873;1203;3079765;-67
2021/06/17 04:03:23;;;;;;;6.90;3.80;;;;;;;26.92;50.99;100973.94;22592;1214;3080224;-67
2021/06/17 04:05:31;;;;;;;7.00;3.90;;;;;;;27.18;49.65;100969.95;21874;1205;3079937;-67
2021/06/17 04:07:42;;;;;;;8.50;3.80;;;;;;;27.45;48.75;100967.61;22569;1213;3080009;-67
2021/06/17 04:09:51;;;;;;;10.80;3.70;;;;;;;27.69;48.25;100966.91;22573;1215;3079632;-69
2021/06/17 04:12:06;;;;;;;8.20;3.80;;;;;;;27.92;47.36;100960.59;21868;1215;3079591;-67
2021/06/17 04:14:14;;;;;;;5.40;3.30;;;;;;;28.16;46.31;100967.08;22573;1210;3080327;-67
2021/06/17 04:16:25;;;;;;;5.90;3.10;;;;;;;28.59;44.77;100970.83;22564;1210;3080356;-66
2021/06/17 04:18:34;;;;;;;9.70;3.20;;;;;;;29.26;44.26;100969.75;21868;1214;3081135;-67
2021/06/17 04:20:44;;;;;;;7.30;3.70;;;;;;;29.59;42.32;100974.28;22557;1211;3079710;-68
2021/06/17 04:22:57;;;;;;;6.30;3.20;;;;;;;29.92;41.37;100977.13;22562;1211;3080114;-67
2021/06/17 04:25:09;;;;;;;7.20;3.40;;;;;;;30.04;41.71;100981.12;22560;1214;3080573;-68
2021/06/17 04:27:17;;;;;;;6.30;2.80;;;;;;;30.14;40.67;100974.52;22546;1206;3080084;-68
2021/06/17 04:29:33;;;;;;;8.30;3.10;;;;;;;30.49;38.91;100987.84;22642;1212;3078917;-67
2021/06/17 04:31:41;;;;;;;6.20;3.10;;;;;;;31.21;38.46;100971.34;22634;1204;3080068;-67
2021/06/17 04:33:51;;;;;;;7.20;3.10;;;;;;;31.80;37.00;100975.88;22662;1210;3079762;-67
2021/06/17 04:36:03;;;;;;;5.20;2.90;;;;;;;32.54;35.66;100972.31;22641;1215;3080148;-68
2021/06/17 04:38:15;;;;;;;5.70;2.90;;;;;;;32.77;35.02;100966.64;22646;1212;3080564;-67
2021/06/17 04:40:24;;;;;;;6.10;3.00;;;;;;;33.16;34.06;100972.20;22639;1206;3080382;-67
2021/06/17 04:42:35;;;;;;;6.50;3.40;;;;;;;33.08;34.09;100971.05;22598;1214;3081380;-67
2021/06/17 04:44:44;;;;;;;5.70;3.10;;;;;;;33.00;33.56;100971.81;22630;1210;3080816;-66
2021/06/17 04:46:52;;;;;;;5.10;2.80;;;;;;;33.89;32.80;100970.48;22634;1204;3080108;-66
2021/06/17 04:49:01;;;;;;;6.00;2.70;;;;;;;33.86;32.81;100966.36;22631;1215;3078962;-66
2021/06/17 04:51:13;;;;;;;5.20;2.70;;;;;;;34.26;31.41;100964.16;22578;1208;3080066;-66
2021/06/17 04:53:23;;;;;;;6.10;3.10;;;;;;;34.50;31.00;100967.25;22621;1213;3080325;-67
2021/06/17 04:55:31;;;;;;;5.00;2.50;;;;;;;34.54;30.73;100961.77;22614;1203;3080120;-66
2021/06/17 04:57:38;;;;;;;6.20;2.80;;;;;;;34.32;30.82;100966.47;22609;1205;3079589;-67
2021/06/17 04:59:46;;;;;;;6.80;2.80;;;;;;;34.38;30.64;100970.75;22611;1211;3080316;-67
2021/06/17 05:01:54;;;;;;;4.50;2.30;;;;;;;34.90;29.43;100960.16;22627;1203;3080313;-67
2021/06/17 05:04:02;;;;;;;4.90;2.40;;;;;;;35.48;28.42;100966.91;22628;1215;3080365;-67
2021/06/17 05:06:11;;;;;;;4.30;2.40;;;;;;;35.62;27.94;100964.69;22626;1206;3079014;-66
2021/06/17 05:10:50;;;;;;;3.90;2.20;;;;;;;35.52;26.86;100962.23;22618;1214;3079976;-66
2021/06/17 05:12:59;;;;;;;4.50;2.00;;;;;;;35.45;27.63;100965.61;22628;1210;3079246;-68
2021/06/17 05:15:14;;;;;;;4.90;2.40;;;;;;;35.80;26.38;100960.55;21852;1206;3200291;-68
2021/06/17 05:17:22;;;;;;;5.40;2.00;;;;;;;35.89;26.88;100960.47;22625;1215;3079915;-68
2021/06/17 05:19:30;;;;;;;6.30;2.20;;;;;;;36.08;26.27;100966.43;22624;1203;3079980;-66
2021/06/17 05:21:37;;;;;;;4.00;1.80;;;;;;;36.31;25.85;100970.50;22622;1214;3080023;-66
2021/06/17 05:23:47;;;;;;;3.90;2.20;;;;;;;36.46;26.03;100972.63;22611;1211;3080496;-66
2021/06/17 05:26:00;;;;;;;4.00;2.20;;;;;;;36.71;25.49;100962.25;22612;1215;3080637;-66
2021/06/17 05:28:08;;;;;;;5.90;2.10;;;;;;;36.67;26.04;100967.75;22617;1203;3079935;-68
2021/06/17 05:30:19;;;;;;;7.10;2.50;;;;;;;36.93;24.64;100967.41;22627;1213;3080551;-69
2021/06/17 05:32:30;;;;;;;7.10;2.60;;;;;;;36.96;25.13;100971.55;22623;1207;3080497;-67
2021/06/17 05:34:40;;;;;;;5.10;3.30;;;;;;;37.41;23.19;100960.94;22619;1211;3079792;-67
2021/06/17 05:36:48;;;;;;;8.60;4.20;;;;;;;37.36;22.86;100966.80;22614;1211;3080276;-68
2021/06/17 05:38:55;;;;;;;6.90;3.60;;;;;;;37.59;22.46;100958.67;22613;1207;3079927;-65
2021/06/17 05:41:06;;;;;;;6.10;2.50;;;;;;;37.54;22.44;100958.92;22609;1213;3080124;-65
2021/06/17 05:43:14;;;;;;;7.10;2.20;;;;;;;37.28;23.20;100964.94;22617;1210;3080214;-65
2021/06/17 05:45:22;;;;;;;4.70;2.00;;;;;;;36.87;22.60;100967.99;22633;1207;3079286;-65
2021/06/17 05:47:32;;;;;;;6.80;2.80;;;;;;;37.87;22.26;100973.66;22629;1215;3079890;-65
2021/06/17 05:49:39;;;;;;;5.50;2.20;;;;;;;38.26;21.67;100977.58;22634;1215;3079645;-68
2021/06/17 05:51:47;;;;;;;7.50;2.40;;;;;;;38.23;21.54;100972.66;22598;1215;3080190;-67
2021/06/17 05:53:54;;;;;;;5.80;2.70;;;;;;;38.22;21.76;100982.30;22594;1205;3079754;-66
2021/06/17 05:56:02;;;;;;;3.60;2.10;;;;;;;38.12;21.56;100988.47;22639;1215;3080089;-65
2021/06/17 05:58:12;;;;;;;4.80;2.10;;;;;;;37.86;21.87;100986.08;22605;1203;3079213;-67
2021/06/17 06:00:21;;;;;;;3.80;2.10;;;;;;;37.65;21.57;100989.09;22611;1206;3080155;-65
2021/06/17 06:02:35;;;;;;;4.90;2.00;;;;;;;38.26;20.66;100988.88;22608;1203;3080262;-65
2021/06/17 06:04:42;;;;;;;3.40;1.90;;;;;;;38.49;20.82;100987.09;22611;1211;3079028;-68
2021/06/17 06:06:50;;;;;;;4.30;2.00;;;;;;;39.13;20.41;100997.23;22607;1213;3080223;-68
2021/06/17 06:08:57;;;;;;;4.80;2.00;;;;;;;39.12;19.11;100992.78;22618;1213;3081238;-67
2021/06/17 06:11:04;;;;;;;4.00;1.80;;;;;;;38.98;19.24;100992.43;22595;1215;3079962;-68
2021/06/17 06:13:12;;;;;;;3.70;1.70;;;;;;;38.60;19.63;100993.84;22602;1211;3079859;-67
2021/06/17 06:15:23;;;;;;;3.20;1.90;;;;;;;39.00;19.15;100992.88;22624;1215;3080382;-69
2021/06/17 06:17:34;;;;;;;4.90;2.40;;;;;;;39.14;20.01;100988.39;22606;1215;3079726;-67
2021/06/17 06:19:41;;;;;;;3.70;1.80;;;;;;;39.33;18.95;100994.13;22613;1211;3080139;-68
2021/06/17 06:21:49;;;;;;;2.90;1.60;;;;;;;39.22;19.23;100992.23;22596;1214;3080648;-68
2021/06/17 06:23:56;;;;;;;3.20;1.40;;;;;;;39.05;19.20;100992.59;22610;1207;3080226;-65
2021/06/17 06:26:04;;;;;;;4.00;1.40;;;;;;;39.05;18.93;101001.07;22618;1211;3080032;-65
2021/06/17 06:28:11;;;;;;;3.80;2.00;;;;;;;39.39;18.44;100997.49;22613;1211;3079923;-68
2021/06/17 06:30:21;;;;;;;5.80;1.90;;;;;;;39.45;18.29;101008.13;22598;1215;3079972;-68
2021/06/17 06:32:37;;;;;;;3.70;1.70;;;;;;;39.69;18.52;101000.61;22606;1210;3079797;-69
2021/06/17 06:34:45;;;;;;;4.80;1.60;;;;;;;39.83;18.32;101010.20;22626;1211;3080049;-65
2021/06/17 06:36:56;;;;;;;3.40;1.60;;;;;;;39.70;17.87;101014.38;22588;1203;3080206;-65
2021/06/17 06:39:03;;;;;;;2.80;1.60;;;;;;;40.13;17.18;101012.48;22612;1213;3079886;-65
2021/06/17 06:41:11;;;;;;;4.70;1.70;;;;;;;40.60;17.58;101019.48;21800;1211;3087396;-65
2021/06/17 06:43:18;;;;;;;2.70;1.50;;;;;;;40.27;17.79;101015.60;22581;1212;3079600;-65
2021/06/17 06:45:26;;;;;;;3.40;1.70;;;;;;;40.34;17.14;101015.73;22595;1214;3079426;-65
2021/06/17 06:47:34;;;;;;;4.60;1.80;;;;;;;39.78;17.06;101018.17;22580;1211;3079966;-67
2021/06/17 06:49:41;;;;;;;3.10;1.80;;;;;;;39.86;18.16;101020.78;22621;1210;3080344;-68
2021/06/17 06:51:50;;;;;;;2.70;1.70;;;;;;;40.12;17.07;101030.66;22611;1211;3080619;-68
2021/06/17 06:53:57;;;;;;;5.10;2.00;;;;;;;39.85;17.65;101022.00;22640;1207;3080434;-65
2021/06/17 06:56:05;;;;;;;3.80;1.80;;;;;;;39.95;17.83;101021.39;22590;1210;3079588;-65
2021/06/17 06:58:15;;;;;;;5.10;2.20;;;;;;;39.81;17.53;101023.92;22594;1213;3080353;-69
2021/06/17 07:00:23;;;;;;;4.70;2.00;;;;;;;39.76;17.35;101029.88;22569;1210;3079737;-68
2021/06/17 07:02:34;;;;;;;3.90;1.60;;;;;;;40.24;17.25;101030.50;22592;1213;3079569;-66
2021/06/17 07:04:42;;;;;;;3.80;1.70;;;;;;;39.99;17.33;101033.63;22586;1204;3080588;-65
2021/06/17 07:06:49;;;;;;;3.20;1.50;;;;;;;40.20;16.00;101035.27;22581;1211;3079377;-66
2021/06/17 07:08:57;;;;;;;3.30;1.70;;;;;;;40.33;16.41;101039.56;22587;1207;3079601;-65
2021/06/17 07:11:04;;;;;;;3.90;1.70;;;;;;;40.34;16.82;101038.38;22610;1210;3080788;-65
2021/06/17 07:13:13;;;;;;;3.30;1.80;;;;;;;40.22;16.88;101030.07;22589;1204;3080308;-69
2021/06/17 07:15:22;;;;;;;4.00;1.70;;;;;;;40.17;16.60;101027.52;22587;1215;3080321;-68
2021/06/17 07:17:33;;;;;;;2.30;1.60;;;;;;;40.39;16.60;101040.91;22588;1215;3080139;-68
2021/06/17 07:19:40;;;;;;;4.30;1.70;;;;;;;40.61;16.42;101032.47;22600;1206;3080552;-65
2021/06/17 07:21:47;;;;;;;3.50;1.60;;;;;;;40.76;16.84;101038.41;22601;1203;3080472;-66
2021/06/17 07:23:56;;;;;;;2.70;1.50;;;;;;;41.18;16.68;101031.45;22600;1213;3080010;-68
2021/06/17 07:26:03;;;;;;;4.00;1.50;;;;;;;41.26;15.43;101035.24;22603;1213;3080134;-69
2021/06/17 07:28:11;;;;;;;3.00;1.40;;;;;;;41.07;16.29;101033.30;22609;1214;3080010;-66
2021/06/17 07:30:21;;;;;;;2.90;1.40;;;;;;;41.06;15.26;101037.35;22593;1215;3079796;-64
2021/06/17 07:32:28;;;;;;;4.40;1.80;;;;;;;41.05;15.80;101035.70;22590;1215;3080055;-66
2021/06/17 07:34:36;;;;;;;2.60;1.50;;;;;;;40.91;15.40;101041.13;22597;1213;3079872;-66
2021/06/17 07:36:47;;;;;;;3.70;1.40;;;;;;;40.65;15.62;101046.72;22585;1210;3080252;-66
2021/06/17 07:38:55;;;;;;;2.30;1.20;;;;;;;40.51;16.46;101052.11;22585;1215;3079253;-69
2021/06/17 07:41:02;;;;;;;2.10;1.40;;;;;;;40.60;16.26;101049.86;22595;1210;3080834;-61
2021/06/17 07:43:14;;;;;;;3.30;1.50;;;;;;;40.61;15.90;101060.80;22558;1213;3079598;-62
2021/06/17 07:45:25;;;;;;;3.20;1.50;;;;;;;40.57;15.63;101050.61;22597;1211;3079460;-62
2021/06/17 07:47:33;;;;;;;3.50;1.50;;;;;;;40.56;16.13;101046.95;22585;1206;3080836;-59
2021/06/17 07:49:40;;;;;;;3.60;1.30;;;;;;;40.94;15.68;101048.88;22592;1215;3079862;-57
2021/06/17 07:51:48;;;;;;;3.40;1.70;;;;;;;40.97;15.85;101039.62;22613;1211;3080369;-57
2021/06/17 07:53:59;;;;;;;4.30;1.60;;;;;;;40.80;16.11;101044.94;22583;1205;3080197;-63
2021/06/17 07:56:09;;;;;;;3.20;1.90;;;;;;;40.34;16.80;101047.70;22597;1210;3080355;-63
2021/06/17 07:58:18;;;;;;;3.10;1.90;;;;;;;40.73;16.34;101031.48;22588;1213;3079310;-63
2021/06/17 08:00:29;;;;;;;3.20;1.70;;;;;;;40.34;16.28;101039.20;22585;1215;3081864;-62
2021/06/17 08:02:36;;;;;;;2.70;1.50;;;;;;;40.17;16.07;101041.67;22603;1207;3080662;-63
2021/06/17 08:04:44;;;;;;;3.30;1.80;;;;;;;40.15;17.55;101042.06;22600;1214;3080354;-63
2021/06/17 08:06:51;;;;;;;2.50;1.80;;;;;;;40.39;17.09;101033.23;22589;1213;3080614;-63
2021/06/17 08:09:00;;;;;;;3.70;1.80;;;;;;;40.35;17.07;101029.53;22586;1215;3079818;-60
2021/06/17 08:11:11;;;;;;;2.60;1.80;;;;;;;40.27;16.10;101033.42;22623;1202;3079728;-60
2021/06/17 08:13:21;;;;;;;2.30;1.40;;;;;;;39.52;17.01;101035.77;22600;1215;3079957;-62
2021/06/17 08:15:29;;;;;;;3.90;1.80;;;;;;;39.77;17.49;101030.70;22590;1213;3080124;-63
2021/06/17 08:17:39;;;;;;;2.60;1.70;;;;;;;39.41;17.38;101038.36;22609;1213;3080256;-63
2021/06/17 08:19:47;;;;;;;4.10;1.80;;;;;;;39.56;17.33;101036.66;22601;1215;3080521;-63
2021/06/17 08:21:54;;;;;;;2.70;1.70;;;;;;;39.41;17.51;101035.53;22597;1213;3080202;-63
2021/06/17 08:24:05;;;;;;;4.20;1.90;;;;;;;39.65;18.10;101034.48;22579;1214;3080310;-62
2021/06/17 08:26:13;;;;;;;3.20;2.00;;;;;;;40.02;17.94;101034.89;22605;1211;3080596;-63
2021/06/17 08:28:24;;;;;;;4.40;1.70;;;;;;;40.40;17.32;101026.38;22645;1213;3079545;-63
2021/06/17 08:30:34;;;;;;;4.50;1.60;;;;;;;40.58;18.00;101033.22;22593;1215;3080380;-62
2021/06/17 08:32:42;;;;;;;4.90;1.80;;;;;;;40.65;17.41;101038.21;22577;1213;3080283;-62
2021/06/17 08:34:52;;;;;;;3.00;1.60;;;;;;;40.75;17.06;101034.74;22645;1215;3079853;-63
2021/06/17 08:37:04;;;;;;;3.40;1.80;;;;;;;40.52;16.88;101031.89;22593;1214;3079833;-65
2021/06/17 08:39:12;;;;;;;3.90;1.70;;;;;;;40.26;16.50;101028.94;22586;1214;3078869;-63
2021/06/17 08:41:20;;;;;;;27.80;2.20;;;;;;;39.94;17.23;101036.73;22593;1214;3079884;-63
2021/06/17 08:43:27;;;;;;;1.90;1.40;;;;;;;39.40;16.59;101045.19;22571;1215;3080239;-60
2021/06/17 08:45:35;;;;;;;3.50;1.50;;;;;;;38.53;17.28;101044.51;22592;1215;3079151;-60
2021/06/17 08:47:46;;;;;;;5.50;1.80;;;;;;;38.28;18.38;101035.31;22589;1211;3079440;-60
2021/06/17 08:49:54;;;;;;;4.60;2.70;;;;;;;38.68;17.69;101037.25;22602;1211;3080309;-59
2021/06/17 08:52:03;;;;;;;3.20;1.90;;;;;;;38.92;17.95;101046.41;22586;1211;3080338;-60
2021/06/17 08:54:13;;;;;;;4.30;1.50;;;;;;;39.10;17.97;101051.66;21814;1214;3200588;-60
2021/06/17 08:56:57;;;;;;;3.40;1.80;;;;;;;39.11;17.74;101042.02;27670;1221;3126829;-59
2021/06/17 08:59:06;;;;;;;3.10;2.00;;;;;;;38.80;17.08;101046.48;22418;1226;3077622;-65
2021/06/17 09:01:15;;;;;;;6.80;1.90;;;;;;;38.45;18.28;101045.50;21661;1226;3201798;-61
2021/06/17 09:03:23;;;;;;;4.20;1.60;;;;;;;38.55;18.60;101047.79;22437;1226;3078045;-64
2021/06/17 09:05:34;;;;;;;2.80;1.60;;;;;;;38.15;18.35;101041.38;22421;1227;3078098;-63
2021/06/17 09:07:43;;;;;;;3.40;1.50;;;;;;;37.87;19.07;101046.15;22433;1226;3077489;-63
2021/06/17 09:09:51;;;;;;;4.70;1.70;;;;;;;37.78;18.84;101040.64;22450;1227;3077482;-62
2021/06/17 09:12:00;;;;;;;4.60;1.80;;;;;;;37.45;19.75;101040.83;22462;1227;3076985;-60
2021/06/17 09:14:21;;;;;;;3.80;1.70;;;;;;;37.04;18.46;101041.05;22445;1226;3078357;-59
2021/06/17 09:16:29;;;;;;;2.70;1.60;;;;;;;36.44;19.86;101044.52;22441;1226;3078291;-60
2021/06/17 09:18:43;;;;;;;3.40;1.50;;;;;;;36.53;20.00;101037.67;22469;1227;3079404;-59
2021/06/17 09:20:55;;;;;;;2.70;1.50;;;;;;;36.51;20.27;101042.81;22543;1222;3078383;-59
2021/06/17 09:23:27;;;;;;;3.80;1.90;;;;;;;36.15;19.14;101039.86;21723;1224;3085881;-62
2021/06/17 09:25:45;;;;;;;2.90;1.40;;;;;;;35.36;19.81;101035.10;22537;1223;3078285;-62
2021/06/17 09:28:03;;;;;;;4.00;1.50;;;;;;;35.01;20.59;101046.83;22528;1222;3079441;-62
2021/06/17 09:30:24;;;;;;;4.60;1.50;;;;;;;34.75;21.56;101049.76;22543;1224;3079154;-63
2021/06/17 09:32:37;;;;;;;2.80;1.50;;;;;;;34.31;21.59;101048.98;22558;1208;3078346;-61
2021/06/17 09:34:45;;;;;;;3.20;1.50;;;;;;;34.16;22.36;101051.48;22526;1212;3078739;-63
2021/06/17 09:36:54;;;;;;;3.60;1.50;;;;;;;33.98;20.94;101047.02;22529;1223;3079230;-59
2021/06/17 09:39:09;;;;;;;4.00;1.70;;;;;;;33.16;21.86;101051.45;22509;1223;3078680;-67
2021/06/17 09:41:36;;;;;;;1.90;1.30;;;;;;;33.10;21.95;101047.14;22554;1224;3078135;-65
2021/06/17 09:43:47;;;;;;;5.00;1.50;;;;;;;33.04;22.67;101056.83;22528;1223;3079000;-71
2021/06/17 09:46:02;;;;;;;3.90;1.40;;;;;;;33.12;23.27;101052.44;22558;1224;3079317;-70
2021/06/17 09:48:50;;;;;;;4.30;1.70;;;;;;;33.02;23.26;101039.51;22548;1223;3079274;-70
2021/06/17 09:51:21;;;;;;;4.00;1.60;;;;;;;33.19;24.80;101041.58;22558;1213;3079501;-72
2021/06/17 09:53:29;;;;;;;4.10;1.80;;;;;;;33.18;23.27;101037.14;22534;1224;3078046;-57
2021/06/17 09:55:43;;;;;;;3.40;1.70;;;;;;;33.16;23.80;101031.84;22539;1223;3078603;-71